createdAt,value
2022-12-03T00:00:30.114Z,101637.69
2022-12-03T00:01:32.488Z,101628.78
2022-12-03T00:02:34.895Z,101630.56
2022-12-03T00:03:37.340Z,101630.03
2022-12-03T00:04:39.797Z,101629.47
2022-12-03T00:05:48.524Z,101629.72
2022-12-03T00:06:51.321Z,101628.53
2022-12-03T00:07:53.728Z,101623.69
2022-12-03T00:08:56.005Z,101626.41
2022-12-03T00:09:58.385Z,101629.34
2022-12-03T00:11:00.575Z,101621.41
2022-12-03T00:12:02.801Z,101622.38
2022-12-03T00:13:05.385Z,101619.00
2022-12-03T00:14:07.771Z,101623.41
2022-12-03T00:15:10.758Z,101626.19
2022-12-03T00:16:14.609Z,101622.25
2022-12-03T00:17:16.797Z,101620.03
2022-12-03T00:18:19.336Z,101623.16
2022-12-03T00:19:21.505Z,101626.81
2022-12-03T00:20:26.159Z,101620.16
2022-12-03T00:21:28.346Z,101618.06
2022-12-03T00:22:30.554Z,101614.66
2022-12-03T00:23:35.939Z,101615.38
2022-12-03T00:24:42.404Z,101615.06
2022-12-03T00:25:44.749Z,101620.34
2022-12-03T00:26:47.046Z,101609.41
2022-12-03T00:27:49.342Z,101614.81
2022-12-03T00:28:51.570Z,101619.69
2022-12-03T00:29:53.938Z,101617.44
2022-12-03T00:30:56.336Z,101615.56
2022-12-03T00:31:59.210Z,101619.41
2022-12-03T00:33:01.346Z,101619.97
2022-12-03T00:34:03.694Z,101623.81
2022-12-03T00:35:06.464Z,101615.75
2022-12-03T00:36:08.946Z,101618.75
2022-12-03T00:37:11.103Z,101618.94
2022-12-03T00:38:14.081Z,101619.69
2022-12-03T00:39:16.259Z,101618.81
2022-12-03T00:40:18.449Z,101621.47
2022-12-03T00:41:20.638Z,101614.59
2022-12-03T00:42:22.994Z,101611.06
2022-12-03T00:43:25.358Z,101621.75
2022-12-03T00:44:27.553Z,101614.69
2022-12-03T00:45:29.965Z,101612.59
2022-12-03T00:46:32.597Z,101608.88
2022-12-03T00:47:35.061Z,101604.94
2022-12-03T00:48:37.494Z,101612.50
2022-12-03T00:49:39.707Z,101613.44
2022-12-03T00:50:42.051Z,101618.59
2022-12-03T00:51:44.471Z,101611.72
2022-12-03T00:52:46.623Z,101611.97
2022-12-03T00:53:49.178Z,101617.00
2022-12-03T00:54:51.847Z,101611.66
2022-12-03T00:55:54.325Z,101609.53
2022-12-03T00:56:56.695Z,101611.06
2022-12-03T00:57:59.293Z,101614.25
2022-12-03T00:59:01.469Z,101615.13
2022-12-03T01:00:05.904Z,101609.34
2022-12-03T01:01:08.123Z,101618.56
2022-12-03T01:02:10.376Z,101616.50
2022-12-03T01:03:12.850Z,101617.59
2022-12-03T01:04:15.045Z,101607.28
2022-12-03T01:05:18.043Z,101618.00
2022-12-03T01:06:20.299Z,101613.25
2022-12-03T01:07:22.519Z,101611.66
2022-12-03T01:08:24.738Z,101612.25
2022-12-03T01:09:27.095Z,101611.81
2022-12-03T01:10:29.472Z,101605.78
2022-12-03T01:11:37.487Z,101615.38
2022-12-03T01:12:39.986Z,101620.56
2022-12-03T01:13:42.326Z,101612.09
2022-12-03T01:14:46.389Z,101609.78
2022-12-03T01:15:48.960Z,101612.34
2022-12-03T01:16:51.224Z,101607.19
2022-12-03T01:17:54.326Z,101621.06
2022-12-03T01:18:56.532Z,101619.63
2022-12-03T01:20:00.601Z,101618.16
2022-12-03T01:21:03.127Z,101618.59
2022-12-03T01:22:05.288Z,101622.25
2022-12-03T01:23:09.295Z,101615.06
2022-12-03T01:24:12.294Z,101615.88
2022-12-03T01:25:14.937Z,101618.91
2022-12-03T01:26:17.099Z,101610.34
2022-12-03T01:27:19.376Z,101614.56
2022-12-03T01:28:21.811Z,101611.41
2022-12-03T01:29:24.633Z,101615.47
2022-12-03T01:30:26.977Z,101614.97
2022-12-03T01:31:47.914Z,101609.69
2022-12-03T01:32:50.022Z,101616.19
2022-12-03T01:33:52.096Z,101610.53
2022-12-03T01:34:55.881Z,101612.75
2022-12-03T01:35:58.549Z,101612.00
2022-12-03T01:37:00.929Z,101612.16
2022-12-03T01:38:03.081Z,101612.75
2022-12-03T01:39:05.488Z,101613.31
2022-12-03T01:40:11.636Z,101613.97
2022-12-03T01:41:14.312Z,101605.44
2022-12-03T01:42:20.078Z,101610.00
2022-12-03T01:43:22.450Z,101613.19
2022-12-03T01:44:31.388Z,101603.75
2022-12-03T01:45:33.842Z,101607.50
2022-12-03T01:46:41.344Z,101607.75
2022-12-03T01:47:43.755Z,101607.41
2022-12-03T01:48:47.517Z,101609.13
2022-12-03T01:49:59.108Z,101613.53
2022-12-03T01:51:01.829Z,101608.38
2022-12-03T01:52:04.034Z,101616.69
2022-12-03T01:53:06.206Z,101611.44
2022-12-03T01:54:17.060Z,101602.84
2022-12-03T01:55:24.068Z,101605.00
2022-12-03T01:56:27.050Z,101613.19
2022-12-03T01:57:41.262Z,101607.97
2022-12-03T01:58:45.824Z,101601.28
2022-12-03T01:59:48.632Z,101602.66
2022-12-03T02:00:51.226Z,101603.25
2022-12-03T02:01:53.676Z,101594.09
2022-12-03T02:02:58.655Z,101597.84
2022-12-03T02:04:01.044Z,101599.59
2022-12-03T02:05:20.942Z,101598.34
2022-12-03T02:06:26.195Z,101598.22
2022-12-03T02:07:33.446Z,101601.34
2022-12-03T02:08:39.140Z,101598.91
2022-12-03T02:09:41.604Z,101597.22
2022-12-03T02:10:43.971Z,101596.19
2022-12-03T02:11:50.622Z,101591.50
2022-12-03T02:13:03.411Z,101593.94
2022-12-03T02:14:09.397Z,101595.97
2022-12-03T02:15:12.921Z,101595.59
2022-12-03T02:16:15.295Z,101587.28
2022-12-03T02:17:19.206Z,101594.44
2022-12-03T02:18:21.711Z,101588.34
2022-12-03T02:19:29.763Z,101592.41
2022-12-03T02:20:37.253Z,101588.34
2022-12-03T02:22:03.165Z,101594.41
2022-12-03T02:23:15.640Z,101599.69
2022-12-03T02:24:32.999Z,101592.63
2022-12-03T02:25:36.980Z,101590.03
2022-12-03T02:26:39.290Z,101594.91
2022-12-03T02:27:42.092Z,101587.97
2022-12-03T02:28:44.685Z,101593.44
2022-12-03T02:29:46.856Z,101593.38
2022-12-03T02:30:49.229Z,101602.69
2022-12-03T02:31:51.563Z,101600.94
2022-12-03T02:32:55.585Z,101594.31
2022-12-03T02:33:57.850Z,101589.69
2022-12-03T02:35:00.252Z,101595.25
2022-12-03T02:36:04.146Z,101595.66
2022-12-03T02:37:09.006Z,101590.81
2022-12-03T02:38:24.771Z,101599.00
2022-12-03T02:39:27.688Z,101601.78
2022-12-03T02:40:33.124Z,101596.38
2022-12-03T02:41:53.766Z,101598.09
2022-12-03T02:42:58.778Z,101596.19
2022-12-03T02:44:01.126Z,101596.47
2022-12-03T02:45:17.586Z,101593.97
2022-12-03T02:46:20.142Z,101594.66
2022-12-03T02:47:23.665Z,101590.97
2022-12-03T02:48:29.975Z,101592.72
2022-12-03T02:49:32.459Z,101595.22
2022-12-03T02:50:41.483Z,101597.56
2022-12-03T02:51:43.717Z,101589.88
2022-12-03T02:52:47.540Z,101588.06
2022-12-03T02:53:52.132Z,101586.97
2022-12-03T02:54:54.878Z,101595.72
2022-12-03T02:55:59.485Z,101590.34
2022-12-03T02:57:02.233Z,101587.72
2022-12-03T02:58:05.253Z,101589.50
2022-12-03T02:59:07.455Z,101595.13
2022-12-03T03:00:11.163Z,101591.75
2022-12-03T03:01:15.597Z,101595.31
2022-12-03T03:02:18.070Z,101596.84
2022-12-03T03:03:22.105Z,101591.63
2022-12-03T03:04:24.881Z,101590.06
2022-12-03T03:05:27.489Z,101589.69
2022-12-03T03:06:29.913Z,101589.69
2022-12-03T03:07:32.373Z,101593.97
2022-12-03T03:08:36.836Z,101588.44
2022-12-03T03:09:39.166Z,101597.34
2022-12-03T03:10:43.315Z,101595.03
2022-12-03T03:11:45.753Z,101593.75
2022-12-03T03:12:48.182Z,101597.06
2022-12-03T03:13:50.588Z,101596.94
2022-12-03T03:14:52.948Z,101593.66
2022-12-03T03:15:56.003Z,101596.28
2022-12-03T03:16:58.485Z,101593.31
2022-12-03T03:18:00.871Z,101592.63
2022-12-03T03:19:03.073Z,101595.38
2022-12-03T03:20:08.070Z,101590.66
2022-12-03T03:21:12.669Z,101591.75
2022-12-03T03:22:15.094Z,101598.19
2022-12-03T03:23:21.026Z,101593.31
2022-12-03T03:24:23.491Z,101595.81
2022-12-03T03:25:25.694Z,101587.69
2022-12-03T03:26:29.803Z,101594.63
2022-12-03T03:27:32.655Z,101592.31
2022-12-03T03:28:38.603Z,101588.59
2022-12-03T03:29:40.791Z,101585.63
2022-12-03T03:30:46.569Z,101583.94
2022-12-03T03:31:49.349Z,101591.44
2022-12-03T03:32:51.771Z,101583.16
2022-12-03T03:33:54.219Z,101585.47
2022-12-03T03:34:57.048Z,101583.69
2022-12-03T03:36:00.522Z,101580.88
2022-12-03T03:37:02.789Z,101577.75
2022-12-03T03:38:06.641Z,101576.72
2022-12-03T03:39:10.221Z,101589.25
2022-12-03T03:40:12.548Z,101581.28
2022-12-03T03:41:15.791Z,101586.59
2022-12-03T03:42:18.311Z,101589.38
2022-12-03T03:43:22.354Z,101589.38
2022-12-03T03:44:24.578Z,101586.28
2022-12-03T03:45:29.399Z,101582.34
2022-12-03T03:46:33.493Z,101587.56
2022-12-03T03:47:36.125Z,101586.31
2022-12-03T03:48:39.353Z,101588.53
2022-12-03T03:49:42.316Z,101590.06
2022-12-03T03:50:45.341Z,101590.66
2022-12-03T03:51:47.814Z,101584.53
2022-12-03T03:52:50.301Z,101590.81
2022-12-03T03:53:53.118Z,101582.00
2022-12-03T03:54:55.785Z,101591.19
2022-12-03T03:55:58.312Z,101588.00
2022-12-03T03:57:00.478Z,101590.28
2022-12-03T03:58:02.862Z,101596.38
2022-12-03T03:59:05.364Z,101592.69
2022-12-03T04:00:08.893Z,101591.31
2022-12-03T04:01:13.436Z,101589.47
2022-12-03T04:02:21.836Z,101582.63
2022-12-03T04:03:24.212Z,101587.03
2022-12-03T04:04:28.158Z,101581.69
2022-12-03T04:05:30.620Z,101583.81
2022-12-03T04:06:33.149Z,101581.75
2022-12-03T04:07:35.345Z,101577.34
2022-12-03T04:08:37.733Z,101575.75
2022-12-03T04:09:39.878Z,101582.00
2022-12-03T04:11:00.830Z,101580.34
2022-12-03T04:12:22.256Z,101578.91
2022-12-03T04:13:24.434Z,101574.09
2022-12-03T04:14:26.827Z,101577.09
2022-12-03T04:15:29.538Z,101577.50
2022-12-03T04:16:31.870Z,101575.94
2022-12-03T04:17:34.491Z,101570.41
2022-12-03T04:18:42.795Z,101564.19
2022-12-03T04:19:45.037Z,101570.06
2022-12-03T04:20:47.198Z,101566.03
2022-12-03T04:22:08.065Z,101566.03
2022-12-03T04:23:10.403Z,101568.06
2022-12-03T04:24:12.749Z,101563.13
2022-12-03T04:25:33.610Z,101570.97
2022-12-03T04:26:54.839Z,101577.09
2022-12-03T04:28:15.761Z,101565.34
2022-12-03T04:29:18.451Z,101567.19
2022-12-03T04:30:20.597Z,101568.56
2022-12-03T04:31:41.273Z,101575.41
2022-12-03T04:33:02.345Z,101567.78
2022-12-03T04:34:23.495Z,101569.06
2022-12-03T04:35:44.045Z,101565.56
2022-12-03T04:36:47.228Z,101560.84
2022-12-03T04:37:49.552Z,101559.72
2022-12-03T04:38:51.903Z,101558.94
2022-12-03T04:39:54.273Z,101559.75
2022-12-03T04:41:04.092Z,101560.94
2022-12-03T04:42:06.950Z,101557.38
2022-12-03T04:43:09.320Z,101559.47
2022-12-03T04:44:30.491Z,101554.97
2022-12-03T04:45:32.807Z,101560.78
2022-12-03T04:46:34.961Z,101562.41
2022-12-03T04:47:40.051Z,101562.72
2022-12-03T04:48:42.349Z,101555.94
2022-12-03T04:49:46.693Z,101560.81
2022-12-03T04:50:49.497Z,101556.63
2022-12-03T04:51:51.625Z,101556.28
2022-12-03T04:52:53.799Z,101559.97
2022-12-03T04:53:56.140Z,101559.53
2022-12-03T04:54:58.587Z,101559.84
2022-12-03T04:56:00.922Z,101553.53
2022-12-03T04:57:04.077Z,101549.94
2022-12-03T04:58:06.799Z,101555.50
2022-12-03T04:59:14.220Z,101554.81
2022-12-03T05:00:18.458Z,101557.34
2022-12-03T05:01:22.976Z,101557.56
2022-12-03T05:02:25.258Z,101552.44
2022-12-03T05:03:27.455Z,101556.25
2022-12-03T05:04:31.569Z,101553.72
2022-12-03T05:05:33.744Z,101553.00
2022-12-03T05:06:36.092Z,101545.97
2022-12-03T05:07:38.580Z,101549.72
2022-12-03T05:08:40.770Z,101547.94
2022-12-03T05:09:43.127Z,101542.59
2022-12-03T05:10:45.254Z,101540.59
2022-12-03T05:11:47.847Z,101544.16
2022-12-03T05:12:50.172Z,101543.16
2022-12-03T05:13:52.521Z,101547.28
2022-12-03T05:14:55.165Z,101532.78
2022-12-03T05:15:57.563Z,101541.72
2022-12-03T05:17:00.069Z,101548.41
2022-12-03T05:18:02.458Z,101545.31
2022-12-03T05:19:06.676Z,101543.97
2022-12-03T05:20:28.306Z,101545.03
2022-12-03T05:21:30.673Z,101541.66
2022-12-03T05:22:32.837Z,101544.50
2022-12-03T05:23:35.395Z,101533.38
2022-12-03T05:24:37.559Z,101533.31
2022-12-03T05:25:41.309Z,101521.72
2022-12-03T05:26:43.476Z,101536.91
2022-12-03T05:27:45.625Z,101540.81
2022-12-03T05:28:48.209Z,101535.34
2022-12-03T05:29:50.422Z,101541.75
2022-12-03T05:30:52.885Z,101533.41
2022-12-03T05:31:55.058Z,101534.13
2022-12-03T05:32:57.270Z,101539.56
2022-12-03T05:33:59.837Z,101528.28
2022-12-03T05:35:02.269Z,101532.50
2022-12-03T05:36:04.558Z,101537.41
2022-12-03T05:37:07.059Z,101530.56
2022-12-03T05:38:09.356Z,101532.97
2022-12-03T05:39:12.675Z,101530.06
2022-12-03T05:40:15.745Z,101531.25
2022-12-03T05:41:36.717Z,101527.63
2022-12-03T05:42:54.437Z,101526.38
2022-12-03T05:43:57.308Z,101525.72
2022-12-03T05:44:59.487Z,101525.59
2022-12-03T05:46:01.975Z,101530.88
2022-12-03T05:47:05.368Z,101522.31
2022-12-03T05:48:10.999Z,101529.94
2022-12-03T05:49:13.356Z,101529.56
2022-12-03T05:50:15.934Z,101528.22
2022-12-03T05:51:18.286Z,101529.91
2022-12-03T05:52:20.451Z,101527.97
2022-12-03T05:53:22.802Z,101521.75
2022-12-03T05:54:24.966Z,101516.50
2022-12-03T05:55:28.028Z,101521.25
2022-12-03T05:56:30.429Z,101522.25
2022-12-03T05:57:32.673Z,101516.47
2022-12-03T05:58:35.029Z,101520.16
2022-12-03T05:59:37.414Z,101523.94
2022-12-03T06:00:42.855Z,101522.47
2022-12-03T06:01:45.678Z,101521.97
2022-12-03T06:02:48.427Z,101528.63
2022-12-03T06:03:50.925Z,101529.00
2022-12-03T06:04:53.647Z,101528.56
2022-12-03T06:05:56.069Z,101531.47
2022-12-03T06:06:58.407Z,101521.91
2022-12-03T06:08:01.446Z,101528.03
2022-12-03T06:09:04.289Z,101531.72
2022-12-03T06:10:09.173Z,101526.69
2022-12-03T06:11:11.339Z,101522.53
2022-12-03T06:12:13.508Z,101522.31
2022-12-03T06:13:16.703Z,101520.13
2022-12-03T06:14:18.854Z,101521.16
2022-12-03T06:15:21.190Z,101528.03
2022-12-03T06:16:23.564Z,101523.94
2022-12-03T06:17:26.453Z,101531.06
2022-12-03T06:18:28.822Z,101532.81
2022-12-03T06:19:31.195Z,101532.38
2022-12-03T06:20:33.369Z,101529.50
2022-12-03T06:21:35.546Z,101534.22
2022-12-03T06:22:37.907Z,101539.66
2022-12-03T06:23:44.941Z,101535.50
2022-12-03T06:24:47.281Z,101532.69
2022-12-03T06:25:50.474Z,101527.47
2022-12-03T06:26:52.685Z,101528.53
2022-12-03T06:27:54.866Z,101527.28
2022-12-03T06:28:57.433Z,101531.22
2022-12-03T06:29:59.746Z,101536.06
2022-12-03T06:31:02.374Z,101534.88
2022-12-03T06:32:05.226Z,101544.25
2022-12-03T06:33:07.423Z,101536.34
2022-12-03T06:34:10.023Z,101534.81
2022-12-03T06:35:12.836Z,101542.31
2022-12-03T06:36:19.891Z,101535.78
2022-12-03T06:37:25.063Z,101539.78
2022-12-03T06:38:27.407Z,101544.81
2022-12-03T06:39:29.888Z,101536.59
2022-12-03T06:40:32.328Z,101543.16
2022-12-03T06:41:34.817Z,101542.53
2022-12-03T06:42:37.055Z,101538.81
2022-12-03T06:43:40.366Z,101539.06
2022-12-03T06:44:42.561Z,101542.09
2022-12-03T06:45:47.888Z,101537.22
2022-12-03T06:46:50.459Z,101534.59
2022-12-03T06:47:52.703Z,101543.94
2022-12-03T06:48:55.289Z,101543.16
2022-12-03T06:49:57.480Z,101533.91
2022-12-03T06:50:59.921Z,101547.97
2022-12-03T06:52:02.142Z,101540.34
2022-12-03T06:53:04.506Z,101541.44
2022-12-03T06:54:06.990Z,101541.56
2022-12-03T06:55:09.864Z,101537.41
2022-12-03T06:56:12.069Z,101541.41
2022-12-03T06:57:14.286Z,101539.47
2022-12-03T06:58:16.685Z,101536.06
2022-12-03T06:59:18.864Z,101538.69
2022-12-03T07:00:21.677Z,101542.78
2022-12-03T07:01:24.083Z,101534.47
2022-12-03T07:02:26.481Z,101539.81
2022-12-03T07:03:28.703Z,101539.28
2022-12-03T07:04:31.146Z,101538.03
2022-12-03T07:05:33.624Z,101536.47
2022-12-03T07:06:36.140Z,101535.19
2022-12-03T07:07:38.506Z,101535.38
2022-12-03T07:08:40.998Z,101538.22
2022-12-03T07:09:43.567Z,101539.69
2022-12-03T07:10:45.755Z,101546.66
2022-12-03T07:11:48.095Z,101539.00
2022-12-03T07:12:50.275Z,101535.91
2022-12-03T07:13:52.879Z,101539.16
2022-12-03T07:14:55.439Z,101535.75
2022-12-03T07:15:58.249Z,101543.63
2022-12-03T07:17:00.651Z,101547.69
2022-12-03T07:18:02.861Z,101539.94
2022-12-03T07:19:06.538Z,101542.84
2022-12-03T07:20:09.189Z,101541.72
2022-12-03T07:21:11.550Z,101537.31
2022-12-03T07:22:14.072Z,101538.22
2022-12-03T07:23:20.719Z,101542.09
2022-12-03T07:24:22.884Z,101540.63
2022-12-03T07:25:25.092Z,101536.53
2022-12-03T07:26:27.647Z,101540.97
2022-12-03T07:27:31.273Z,101541.94
2022-12-03T07:28:33.457Z,101532.97
2022-12-03T07:29:35.644Z,101536.47
2022-12-03T07:30:37.820Z,101535.53
2022-12-03T07:31:40.291Z,101528.94
2022-12-03T07:32:42.755Z,101533.88
2022-12-03T07:33:44.974Z,101528.84
2022-12-03T07:34:47.389Z,101529.69
2022-12-03T07:35:49.636Z,101531.75
2022-12-03T07:36:52.327Z,101536.19
2022-12-03T07:37:54.925Z,101529.22
2022-12-03T07:38:57.274Z,101538.72
2022-12-03T07:39:59.494Z,101534.53
2022-12-03T07:41:01.694Z,101535.22
2022-12-03T07:42:04.609Z,101530.09
2022-12-03T07:43:06.774Z,101526.06
2022-12-03T07:44:13.983Z,101528.47
2022-12-03T07:45:16.724Z,101528.44
2022-12-03T07:46:18.983Z,101531.81
2022-12-03T07:47:21.204Z,101531.97
2022-12-03T07:48:23.759Z,101528.69
2022-12-03T07:49:26.931Z,101531.22
2022-12-03T07:50:29.172Z,101527.84
2022-12-03T07:51:32.488Z,101525.03
2022-12-03T07:52:34.753Z,101524.03
2022-12-03T07:53:37.576Z,101526.31
2022-12-03T07:54:39.973Z,101526.50
2022-12-03T07:55:42.205Z,101529.66
2022-12-03T07:56:44.566Z,101529.78
2022-12-03T07:57:47.008Z,101524.47
2022-12-03T07:58:50.513Z,101529.03
2022-12-03T07:59:53.104Z,101522.78
2022-12-03T08:00:55.477Z,101522.69
2022-12-03T08:01:57.844Z,101523.97
2022-12-03T08:03:00.084Z,101525.31
2022-12-03T08:04:02.435Z,101527.31
2022-12-03T08:05:05.393Z,101522.16
2022-12-03T08:06:07.872Z,101526.75
2022-12-03T08:07:10.054Z,101519.00
2022-12-03T08:08:12.307Z,101525.41
2022-12-03T08:09:16.352Z,101530.00
2022-12-03T08:10:18.967Z,101522.47
2022-12-03T08:11:21.426Z,101526.19
2022-12-03T08:12:40.039Z,101527.19
2022-12-03T08:13:42.678Z,101524.91
2022-12-03T08:14:45.066Z,101517.13
2022-12-03T08:15:47.220Z,101523.13
2022-12-03T08:16:49.653Z,101519.66
2022-12-03T08:17:56.007Z,101523.16
2022-12-03T08:18:58.157Z,101523.53
2022-12-03T08:20:00.745Z,101515.69
2022-12-03T08:21:06.373Z,101520.97
2022-12-03T08:22:14.191Z,101518.75
2022-12-03T08:23:18.602Z,101512.91
2022-12-03T08:24:21.518Z,101523.00
2022-12-03T08:25:31.456Z,101521.09
2022-12-03T08:26:34.477Z,101524.25
2022-12-03T08:27:36.648Z,101527.16
2022-12-03T08:28:39.137Z,101527.84
2022-12-03T08:29:41.310Z,101525.53
2022-12-03T08:30:47.040Z,101519.66
2022-12-03T08:31:57.816Z,101524.13
2022-12-03T08:33:00.229Z,101522.28
2022-12-03T08:34:37.864Z,101515.44
2022-12-03T08:35:44.379Z,101522.03
2022-12-03T08:36:49.742Z,101511.50
2022-12-03T08:38:10.158Z,101514.19
2022-12-03T08:39:35.881Z,101516.41
2022-12-03T08:40:43.716Z,101509.88
2022-12-03T08:42:13.888Z,101512.84
2022-12-03T08:43:20.949Z,101511.34
2022-12-03T08:44:29.722Z,101512.78
2022-12-03T08:45:41.104Z,101508.72
2022-12-03T08:46:43.373Z,101510.28
2022-12-03T08:47:45.799Z,101516.69
2022-12-03T08:48:49.405Z,101513.91
2022-12-03T08:50:00.296Z,101509.50
2022-12-03T08:51:22.297Z,101509.81
2022-12-03T08:52:31.442Z,101512.75
2022-12-03T08:53:59.722Z,101511.09
2022-12-03T08:55:35.125Z,101508.66
2022-12-03T08:56:37.462Z,101506.81
2022-12-03T08:57:41.316Z,101500.34
2022-12-03T08:58:46.401Z,101509.41
2022-12-03T08:59:49.095Z,101510.47
2022-12-03T09:01:07.152Z,101509.03
2022-12-03T09:02:22.391Z,101505.84
2022-12-03T09:03:24.799Z,101509.56
2022-12-03T09:04:38.818Z,101513.84
2022-12-03T09:05:41.316Z,101511.16
2022-12-03T09:06:43.539Z,101510.97
2022-12-03T09:07:45.784Z,101502.50
2022-12-03T09:08:48.340Z,101505.69
2022-12-03T09:09:50.735Z,101502.31
2022-12-03T09:10:53.104Z,101500.75
2022-12-03T09:11:55.397Z,101508.59
2022-12-03T09:12:57.538Z,101503.13
2022-12-03T09:13:59.906Z,101507.69
2022-12-03T09:15:02.280Z,101507.69
2022-12-03T09:16:05.203Z,101500.59
2022-12-03T09:17:07.453Z,101498.19
2022-12-03T09:18:09.929Z,101503.16
2022-12-03T09:19:12.120Z,101494.38
2022-12-03T09:20:15.219Z,101494.66
2022-12-03T09:21:17.796Z,101500.75
2022-12-03T09:22:20.079Z,101505.13
2022-12-03T09:23:22.262Z,101499.91
2022-12-03T09:24:24.735Z,101494.28
2022-12-03T09:25:26.923Z,101496.94
2022-12-03T09:26:29.962Z,101500.03
2022-12-03T09:27:32.179Z,101497.28
2022-12-03T09:28:34.524Z,101495.69
2022-12-03T09:29:36.884Z,101492.69
2022-12-03T09:30:39.065Z,101489.84
2022-12-03T09:31:41.388Z,101493.25
2022-12-03T09:32:44.090Z,101486.31
2022-12-03T09:33:46.381Z,101492.09
2022-12-03T09:34:48.748Z,101487.03
2022-12-03T09:35:50.908Z,101486.34
2022-12-03T09:36:53.132Z,101489.34
2022-12-03T09:37:55.758Z,101486.81
2022-12-03T09:38:58.609Z,101490.25
2022-12-03T09:40:00.956Z,101491.34
2022-12-03T09:41:03.420Z,101485.47
2022-12-03T09:42:05.915Z,101485.44
2022-12-03T09:43:08.350Z,101478.41
2022-12-03T09:44:17.432Z,101487.19
2022-12-03T09:45:20.489Z,101486.97
2022-12-03T09:46:23.725Z,101491.66
2022-12-03T09:47:26.891Z,101486.03
2022-12-03T09:48:29.314Z,101492.38
2022-12-03T09:49:33.727Z,101494.66
2022-12-03T09:50:40.721Z,101493.41
2022-12-03T09:51:44.421Z,101494.31
2022-12-03T09:52:49.989Z,101491.97
2022-12-03T09:53:52.309Z,101499.97
2022-12-03T09:54:54.871Z,101491.03
2022-12-03T09:56:00.933Z,101492.47
2022-12-03T09:57:04.205Z,101495.06
2022-12-03T09:58:12.287Z,101492.53
2022-12-03T09:59:15.441Z,101489.91
2022-12-03T10:00:20.608Z,101500.59
2022-12-03T10:01:27.903Z,101488.78
2022-12-03T10:02:32.240Z,101498.00
2022-12-03T10:03:34.459Z,101496.03
2022-12-03T10:04:36.906Z,101494.16
2022-12-03T10:05:42.594Z,101482.88
2022-12-03T10:06:49.194Z,101496.13
2022-12-03T10:07:52.412Z,101485.31
2022-12-03T10:09:00.000Z,101488.34
2022-12-03T10:10:02.224Z,101484.22
2022-12-03T10:11:04.903Z,101482.97
2022-12-03T10:12:11.755Z,101476.78
2022-12-03T10:13:30.013Z,101483.19
2022-12-03T10:14:32.303Z,101484.47
2022-12-03T10:15:34.796Z,101486.25
2022-12-03T10:16:39.803Z,101483.06
2022-12-03T10:17:42.457Z,101487.06
2022-12-03T10:18:48.635Z,101482.59
2022-12-03T10:19:51.334Z,101478.25
2022-12-03T10:20:54.145Z,101482.75
2022-12-03T10:21:56.356Z,101485.56
2022-12-03T10:22:58.565Z,101486.47
2022-12-03T10:24:22.503Z,101490.91
2022-12-03T10:25:24.736Z,101482.63
2022-12-03T10:26:40.458Z,101477.69
2022-12-03T10:27:43.381Z,101477.78
2022-12-03T10:28:47.545Z,101482.22
2022-12-03T10:29:58.676Z,101477.66
2022-12-03T10:31:03.442Z,101472.28
2022-12-03T10:32:09.191Z,101469.66
2022-12-03T10:33:18.857Z,101470.22
2022-12-03T10:34:32.511Z,101465.63
2022-12-03T10:35:39.752Z,101466.50
2022-12-03T10:36:42.236Z,101466.63
2022-12-03T10:38:18.510Z,101458.88
2022-12-03T10:39:20.907Z,101466.06
2022-12-03T10:40:26.644Z,101468.03
2022-12-03T10:41:29.447Z,101459.66
2022-12-03T10:42:40.234Z,101466.03
2022-12-03T10:43:42.617Z,101460.75
2022-12-03T10:44:44.996Z,101466.38
2022-12-03T10:46:03.738Z,101452.50
2022-12-03T10:47:10.686Z,101451.69
2022-12-03T10:48:21.848Z,101453.34
2022-12-03T10:49:25.433Z,101455.28
2022-12-03T10:50:27.827Z,101452.78
2022-12-03T10:51:30.551Z,101444.72
2022-12-03T10:52:33.653Z,101447.25
2022-12-03T10:53:38.574Z,101450.19
2022-12-03T10:54:40.966Z,101450.22
2022-12-03T10:55:44.945Z,101446.72
2022-12-03T10:56:48.600Z,101448.09
2022-12-03T10:57:51.634Z,101444.94
2022-12-03T10:58:54.665Z,101447.16
2022-12-03T10:59:56.887Z,101447.75
2022-12-03T11:01:03.600Z,101442.91
2022-12-03T11:02:18.837Z,101445.50
2022-12-03T11:03:30.286Z,101444.06
2022-12-03T11:04:35.066Z,101445.16
2022-12-03T11:05:37.405Z,101444.47
2022-12-03T11:06:40.176Z,101444.88
2022-12-03T11:07:43.562Z,101446.06
2022-12-03T11:08:57.527Z,101441.84
2022-12-03T11:10:02.678Z,101438.47
2022-12-03T11:11:08.301Z,101441.09
2022-12-03T11:12:19.585Z,101438.59
2022-12-03T11:13:33.925Z,101437.41
2022-12-03T11:14:54.546Z,101441.69
2022-12-03T11:15:57.297Z,101439.94
2022-12-03T11:16:59.422Z,101434.94
2022-12-03T11:18:03.608Z,101426.78
2022-12-03T11:19:17.823Z,101428.75
2022-12-03T11:20:22.753Z,101433.47
2022-12-03T11:21:25.592Z,101435.94
2022-12-03T11:22:40.673Z,101439.59
2022-12-03T11:23:45.854Z,101436.22
2022-12-03T11:25:34.041Z,101432.50
2022-12-03T11:26:39.292Z,101430.16
2022-12-03T11:27:45.006Z,101427.69
2022-12-03T11:28:47.549Z,101432.06
2022-12-03T11:29:52.544Z,101422.47
2022-12-03T11:31:02.392Z,101428.59
2022-12-03T11:32:04.623Z,101429.19
2022-12-03T11:33:22.429Z,101425.47
2022-12-03T11:34:40.710Z,101428.34
2022-12-03T11:36:05.888Z,101425.94
2022-12-03T11:37:10.779Z,101424.09
2022-12-03T11:38:37.487Z,101425.81
2022-12-03T11:39:52.568Z,101421.63
2022-12-03T11:41:23.688Z,101426.72
2022-12-03T11:42:36.968Z,101421.38
2022-12-03T11:43:57.401Z,101416.94
2022-12-03T11:45:02.934Z,101419.66
2022-12-03T11:46:09.365Z,101414.44
2022-12-03T11:47:16.076Z,101423.19
2022-12-03T11:48:18.757Z,101415.59
2022-12-03T11:49:34.798Z,101420.34
2022-12-03T11:50:57.364Z,101422.19
2022-12-03T11:52:02.423Z,101421.28
2022-12-03T11:53:19.396Z,101423.75
2022-12-03T11:54:23.228Z,101414.38
2022-12-03T11:55:35.569Z,101417.75
2022-12-03T11:56:46.314Z,101418.56
2022-12-03T11:57:48.366Z,101414.78
2022-12-03T11:59:01.726Z,101412.94
2022-12-03T12:00:24.042Z,101420.28
2022-12-03T12:01:38.595Z,101409.25
2022-12-03T12:02:41.551Z,101411.28
2022-12-03T12:03:48.970Z,101404.16
2022-12-03T12:04:51.306Z,101410.50
2022-12-03T12:06:05.668Z,101412.47
2022-12-03T12:07:08.008Z,101416.56
2022-12-03T12:08:19.575Z,101411.19
2022-12-03T12:09:56.249Z,101412.03
2022-12-03T12:10:58.934Z,101408.88
2022-12-03T12:12:21.088Z,101414.91
2022-12-03T12:13:32.243Z,101408.81
2022-12-03T12:14:34.455Z,101407.13
2022-12-03T12:15:39.801Z,101396.81
2022-12-03T12:16:55.341Z,101389.75
2022-12-03T12:17:57.698Z,101393.44
2022-12-03T12:19:34.035Z,101390.84
2022-12-03T12:20:36.910Z,101394.03
2022-12-03T12:21:43.649Z,101390.97
2022-12-03T12:22:45.986Z,101396.59